Time;durP1;ratioP1;P1;durP2;ratioP2;P2;SDS_P1;SDS_P2;PMS_P1;PMS_P2;Temp;Humidity;BMP_temperature;BMP_pressure;BME280_temperature;BME280_humidity;BME280_pressure;Samples;Min_cycle;Max_cycle;Signal;HPM_P1;HPM_P2
2021/08/16 00:00:49;;;;;;;18.50;7.37;;;;;;;16.37;62.15;101076.53;2622810;36;21238;31
2021/08/16 00:03:19;;;;;;;14.75;6.93;;;;;;;16.64;62.13;101116.75;2622266;36;21276;31
2021/08/16 00:05:49;;;;;;;12.15;5.05;;;;;;;16.58;61.82;101109.09;2604004;47;20046;31
2021/08/16 00:08:17;;;;;;;16.75;6.30;;;;;;;16.58;61.74;101106.47;2604213;54;20867;31
2021/08/16 00:10:47;;;;;;;15.93;6.22;;;;;;;16.62;61.39;101115.94;2604692;54;20106;31
2021/08/16 00:13:17;;;;;;;15.73;6.32;;;;;;;16.68;61.28;101120.97;2604018;47;20814;31
2021/08/16 00:15:47;;;;;;;11.90;5.03;;;;;;;16.60;60.98;101110.72;2623204;36;20109;31
2021/08/16 00:18:18;;;;;;;14.95;6.35;;;;;;;16.60;61.09;101109.88;2622404;36;20247;31
2021/08/16 00:20:48;;;;;;;12.20;5.68;;;;;;;16.46;61.28;101091.13;2622424;36;20033;31
2021/08/16 00:23:18;;;;;;;14.40;5.65;;;;;;;16.63;61.16;101116.81;2624103;36;20907;31
2021/08/16 00:25:48;;;;;;;15.00;5.63;;;;;;;16.56;61.55;101113.56;2628251;36;20026;31
2021/08/16 00:28:19;;;;;;;16.15;6.15;;;;;;;16.62;61.08;101113.31;2622806;36;20018;31
2021/08/16 00:30:48;;;;;;;17.83;7.33;;;;;;;16.70;61.25;101129.69;2622682;36;20027;31
2021/08/16 00:33:19;;;;;;;17.08;6.10;;;;;;;16.62;60.86;101123.84;2721210;36;21050;31
2021/08/16 00:35:47;;;;;;;14.70;5.90;;;;;;;16.63;61.15;101125.59;2623527;36;20029;31
2021/08/16 00:38:17;;;;;;;13.23;5.60;;;;;;;16.61;60.94;101115.09;2622979;36;20070;31
2021/08/16 00:40:45;;;;;;;11.73;4.75;;;;;;;16.43;60.92;101086.00;2604337;54;20752;31
2021/08/16 00:43:15;;;;;;;15.82;6.50;;;;;;;16.59;60.71;101124.00;2608569;46;20904;31
2021/08/16 00:45:46;;;;;;;10.80;5.40;;;;;;;16.54;60.88;101120.69;2622839;36;20081;31
2021/08/16 00:48:16;;;;;;;13.18;5.40;;;;;;;16.45;60.97;101105.25;2622661;36;20105;31
2021/08/16 00:50:46;;;;;;;14.35;6.30;;;;;;;16.51;61.08;101126.94;2604701;47;20280;31
2021/08/16 00:53:15;;;;;;;9.52;4.20;;;;;;;16.54;61.14;101125.97;2625864;36;20046;31
2021/08/16 00:55:45;;;;;;;15.73;5.17;;;;;;;16.54;61.23;101134.72;2605771;47;20085;31
2021/08/16 00:58:15;;;;;;;15.65;5.75;;;;;;;16.48;61.20;101134.97;2624876;36;20027;31
2021/08/16 01:00:46;;;;;;;10.88;4.68;;;;;;;16.43;61.41;101130.81;2625631;36;20042;31
2021/08/16 01:03:15;;;;;;;12.05;4.15;;;;;;;16.39;61.49;101127.44;2622972;36;20015;31
2021/08/16 01:05:43;;;;;;;14.35;5.25;;;;;;;16.45;61.59;101142.13;2623686;36;20030;31
2021/08/16 01:08:11;;;;;;;16.10;4.38;;;;;;;16.42;61.99;101143.09;2604666;54;20094;31
2021/08/16 01:10:41;;;;;;;9.70;4.68;;;;;;;16.40;62.10;101136.19;2604185;54;20873;31
2021/08/16 01:13:11;;;;;;;8.93;3.80;;;;;;;16.51;61.58;101152.44;2622630;36;20019;31
2021/08/16 01:15:54;;;;;;;9.45;4.30;;;;;;;16.43;61.71;101146.63;2604074;47;20888;31
2021/08/16 01:18:23;;;;;;;12.80;4.38;;;;;;;16.44;62.36;101161.53;2623023;36;20858;31
2021/08/16 01:20:52;;;;;;;10.83;4.37;;;;;;;16.46;62.37;101167.56;2622552;36;20026;31
2021/08/16 01:23:23;;;;;;;10.85;4.63;;;;;;;16.32;62.15;101147.91;2603382;54;20030;31
2021/08/16 01:25:53;;;;;;;11.32;4.40;;;;;;;16.49;62.15;101181.50;2622875;36;20018;31
2021/08/16 01:28:24;;;;;;;7.97;3.67;;;;;;;16.43;62.43;101149.25;2622263;36;20057;31
2021/08/16 01:30:56;;;;;;;12.35;4.45;;;;;;;16.33;62.79;101128.53;2622581;36;20023;31
2021/08/16 01:33:27;;;;;;;11.00;3.50;;;;;;;16.48;62.42;101149.94;2624502;36;20886;31
2021/08/16 01:35:55;;;;;;;11.50;4.05;;;;;;;16.42;62.98;101152.78;2622217;36;20091;31
2021/08/16 01:38:29;;;;;;;11.20;4.00;;;;;;;16.43;62.54;101149.25;2604113;46;20738;31
2021/08/16 01:41:00;;;;;;;6.40;2.75;;;;;;;16.42;62.85;101158.06;2624960;36;20788;31
2021/08/16 01:43:29;;;;;;;7.47;2.55;;;;;;;16.29;62.56;101132.22;2623045;36;20015;31
2021/08/16 01:45:56;;;;;;;11.07;3.58;;;;;;;16.42;63.25;101169.47;2607503;47;20019;31
2021/08/16 01:48:26;;;;;;;6.53;2.75;;;;;;;16.40;62.81;101167.81;2635652;36;22087;31
2021/08/16 01:50:56;;;;;;;8.00;2.70;;;;;;;16.30;62.62;101165.53;2622098;36;20026;31
2021/08/16 01:53:27;;;;;;;8.70;3.10;;;;;;;16.22;63.22;101140.41;2625644;36;20044;31
2021/08/16 01:55:54;;;;;;;8.20;2.80;;;;;;;16.33;62.97;101159.31;2622349;36;20046;31
2021/08/16 02:00:50;;;;;;;;;;;;;;;16.48;61.61;101165.75;2604390;47;20026;31
2021/08/16 02:03:20;;;;;;;7.57;2.67;;;;;;;16.32;62.92;101140.00;2622854;36;19934;31
2021/08/16 02:05:50;;;;;;;9.02;3.25;;;;;;;16.26;62.55;101136.72;2624928;36;20026;31
2021/08/16 02:08:20;;;;;;;6.15;2.47;;;;;;;16.25;62.97;101141.16;2623306;36;20033;31
2021/08/16 02:10:48;;;;;;;6.75;2.50;;;;;;;16.35;63.12;101160.09;2623418;36;20086;31
2021/08/16 02:13:18;;;;;;;6.43;2.13;;;;;;;16.31;63.27;101153.22;2606139;54;20034;31
2021/08/16 02:18:16;;;;;;;8.27;3.03;;;;;;;16.21;63.73;101154.50;2603968;54;20026;31
2021/08/16 02:20:46;;;;;;;12.27;3.10;;;;;;;16.40;63.03;101186.28;2625806;36;20049;31
2021/08/16 02:23:16;;;;;;;7.80;2.95;;;;;;;16.40;63.41;101191.53;2621442;36;20586;31
2021/08/16 02:25:46;;;;;;;10.77;2.30;;;;;;;16.19;63.50;101170.38;2622792;36;20858;31
2021/08/16 02:28:16;;;;;;;6.75;2.55;;;;;;;16.26;63.47;101184.16;2622392;36;20034;31
2021/08/16 02:30:45;;;;;;;7.53;2.78;;;;;;;16.31;63.52;101188.34;2623291;36;20026;31
2021/08/16 02:33:15;;;;;;;6.25;2.75;;;;;;;16.30;64.05;101191.91;2622735;36;20217;31
2021/08/16 02:35:46;;;;;;;6.35;2.60;;;;;;;16.38;63.45;101206.56;2622424;36;20018;31
2021/08/16 02:38:16;;;;;;;6.57;2.25;;;;;;;16.33;63.49;101202.34;2622768;36;20102;31
2021/08/16 02:40:46;;;;;;;8.30;2.67;;;;;;;16.17;63.66;101169.59;2603187;54;20079;31
2021/08/16 02:43:16;;;;;;;11.73;3.10;;;;;;;16.30;63.86;101199.81;2603620;54;20030;31
2021/08/16 02:45:46;;;;;;;8.20;2.45;;;;;;;16.29;64.02;101200.72;2622554;36;20038;31
2021/08/16 02:48:17;;;;;;;6.90;2.20;;;;;;;16.27;63.88;101191.16;2622162;36;20050;31
2021/08/16 02:50:46;;;;;;;13.00;3.08;;;;;;;16.18;63.90;101170.44;2624426;36;20830;31
2021/08/16 02:53:15;;;;;;;6.60;2.00;;;;;;;16.26;63.83;101185.03;2622714;36;20001;31
2021/08/16 02:55:45;;;;;;;5.67;2.07;;;;;;;16.34;63.79;101197.91;2601896;47;20385;31
2021/08/16 02:58:15;;;;;;;7.20;2.30;;;;;;;16.20;64.16;101180.00;2606341;54;20090;31
2021/08/16 03:00:45;;;;;;;9.45;3.22;;;;;;;16.31;63.85;101204.16;2624435;36;20973;31
2021/08/16 03:03:16;;;;;;;8.23;3.15;;;;;;;16.11;64.25;101169.81;2622426;36;20070;31
2021/08/16 03:05:46;;;;;;;8.95;3.25;;;;;;;16.24;64.63;101201.81;2627972;36;20873;31
2021/08/16 03:08:16;;;;;;;7.95;2.30;;;;;;;16.19;64.09;101194.09;2622579;36;20050;31
2021/08/16 03:10:54;;;;;;;6.97;2.60;;;;;;;16.27;64.11;101204.31;2623316;36;20832;31
2021/08/16 03:13:22;;;;;;;9.17;3.30;;;;;;;16.22;64.70;101198.38;2604423;51;20033;31
2021/08/16 03:15:52;;;;;;;7.53;2.33;;;;;;;16.06;64.77;101182.28;2606968;46;20023;31
2021/08/16 03:18:22;;;;;;;9.45;2.70;;;;;;;16.08;64.41;101177.84;2604956;54;20029;31
2021/08/16 03:20:53;;;;;;;9.45;2.70;;;;;;;16.24;64.53;101202.69;2625003;36;20026;31
2021/08/16 03:23:21;;;;;;;10.47;2.80;;;;;;;16.22;64.52;101194.00;2628275;36;20034;31
2021/08/16 03:25:51;;;;;;;6.85;1.98;;;;;;;16.14;64.21;101190.78;2623660;36;20026;31
2021/08/16 03:28:19;;;;;;;5.97;1.75;;;;;;;16.16;64.46;101199.47;2627572;36;20026;31
2021/08/16 03:30:49;;;;;;;8.40;2.70;;;;;;;16.19;64.71;101194.09;2606807;54;20788;31
2021/08/16 03:33:21;;;;;;;6.90;2.42;;;;;;;16.16;64.37;101194.19;2610948;46;20026;31
2021/08/16 03:35:51;;;;;;;6.77;2.60;;;;;;;16.14;64.57;101193.41;2623814;36;20035;31
2021/08/16 03:38:19;;;;;;;7.00;2.65;;;;;;;16.11;65.08;101193.50;2627520;36;20019;31
2021/08/16 03:40:48;;;;;;;7.32;2.45;;;;;;;16.15;64.87;101197.75;2606686;47;20037;31
2021/08/16 03:43:16;;;;;;;7.60;2.55;;;;;;;16.19;64.58;101204.63;2623112;36;20030;31
2021/08/16 03:45:47;;;;;;;7.43;1.83;;;;;;;16.05;64.58;101183.22;2608760;46;20023;31
2021/08/16 03:48:18;;;;;;;6.03;2.08;;;;;;;16.00;64.83;101187.78;2623189;36;20168;31
2021/08/16 03:50:47;;;;;;;6.85;1.90;;;;;;;16.00;64.79;101187.78;2629422;36;20905;31
2021/08/16 03:53:17;;;;;;;5.00;1.73;;;;;;;16.07;64.69;101197.22;2623218;36;20053;31
2021/08/16 03:55:47;;;;;;;7.88;2.75;;;;;;;15.95;64.65;101184.47;2604143;54;20046;31
2021/08/16 03:58:17;;;;;;;10.88;2.15;;;;;;;16.02;64.55;101191.25;2624741;36;20085;31
2021/08/16 04:00:46;;;;;;;6.85;2.30;;;;;;;16.18;65.07;101218.72;2617370;39;20802;31
2021/08/16 04:03:15;;;;;;;5.30;1.60;;;;;;;15.94;64.67;101188.88;2623142;36;20019;31
2021/08/16 04:05:43;;;;;;;6.65;1.63;;;;;;;16.12;64.54;101212.81;2623261;36;20936;31
2021/08/16 04:08:10;;;;;;;6.05;2.10;;;;;;;15.95;64.65;101187.09;2624643;36;20049;31
2021/08/16 04:10:40;;;;;;;;;;;;;;;16.21;63.18;101229.13;2624130;36;20064;31
2021/08/16 04:13:08;;;;;;;6.35;2.10;;;;;;;15.98;64.53;101205.44;2623419;36;19982;31
2021/08/16 04:15:38;;;;;;;6.35;2.30;;;;;;;16.09;64.64;101230.47;2604618;46;20888;31
2021/08/16 04:18:09;;;;;;;5.18;2.08;;;;;;;16.09;64.22;101229.59;2623810;36;20052;31
2021/08/16 04:20:39;;;;;;;4.43;2.00;;;;;;;15.99;64.67;101215.91;2627268;36;20035;31
2021/08/16 04:23:08;;;;;;;6.40;2.35;;;;;;;16.00;64.54;101219.41;2628936;36;20086;31
2021/08/16 04:25:39;;;;;;;7.70;2.10;;;;;;;16.06;64.48;101232.34;2605569;46;20030;31
2021/08/16 04:28:09;;;;;;;7.18;2.15;;;;;;;16.05;64.61;101233.25;2623636;36;20106;31
2021/08/16 04:30:39;;;;;;;9.60;2.40;;;;;;;16.02;64.80;101229.00;2627108;36;20022;31
2021/08/16 04:33:08;;;;;;;9.80;2.65;;;;;;;15.99;64.97;101233.50;2624232;36;20019;31
2021/08/16 04:35:38;;;;;;;6.68;2.25;;;;;;;15.99;65.12;101237.00;2631820;36;20018;31
2021/08/16 04:38:10;;;;;;;4.80;1.90;;;;;;;16.05;65.00;101249.06;2630363;36;20022;31
2021/08/16 04:40:40;;;;;;;5.70;1.95;;;;;;;15.87;65.09;101226.06;2623729;36;20049;31
2021/08/16 04:43:10;;;;;;;6.75;2.80;;;;;;;15.77;64.98;101210.59;2626980;36;20058;31
2021/08/16 04:45:39;;;;;;;6.05;2.35;;;;;;;15.82;64.96;101227.06;2605072;46;20034;31
2021/08/16 04:48:07;;;;;;;7.53;2.30;;;;;;;15.97;65.42;101261.69;2608839;46;20781;31
2021/08/16 04:50:37;;;;;;;3.67;1.50;;;;;;;15.99;65.04;101265.09;2604639;54;20239;31
2021/08/16 04:53:08;;;;;;;6.47;2.17;;;;;;;15.92;65.34;101264.47;2622695;36;20022;31
2021/08/16 04:55:38;;;;;;;6.80;1.92;;;;;;;15.99;65.17;101260.69;2622778;36;20030;31
2021/08/16 04:58:07;;;;;;;11.18;2.70;;;;;;;15.92;65.04;101253.09;2623614;36;20043;31
2021/08/16 05:00:38;;;;;;;7.43;2.33;;;;;;;15.89;65.10;101247.91;2623616;36;20025;31
2021/08/16 05:03:07;;;;;;;5.82;1.67;;;;;;;15.98;65.20;101253.72;2604178;54;20027;31
2021/08/16 05:05:37;;;;;;;6.70;2.38;;;;;;;15.83;65.33;101231.41;2603903;54;20834;31
2021/08/16 05:08:07;;;;;;;6.35;2.30;;;;;;;15.99;65.14;101259.84;2603803;46;20082;31
2021/08/16 05:10:35;;;;;;;8.68;2.70;;;;;;;15.89;65.56;101255.81;2622324;36;20030;31
2021/08/16 05:13:04;;;;;;;7.45;2.50;;;;;;;15.93;65.44;101255.66;2603977;54;20030;31
2021/08/16 05:15:34;;;;;;;9.20;2.63;;;;;;;15.83;64.91;101244.59;2628086;36;20083;31
2021/08/16 05:18:03;;;;;;;13.20;2.67;;;;;;;15.85;65.05;101230.50;2647580;36;22165;31
2021/08/16 05:20:37;;;;;;;8.07;2.13;;;;;;;15.81;64.80;101235.00;2623000;36;20027;31
2021/08/16 05:23:07;;;;;;;7.85;2.00;;;;;;;15.94;64.95;101251.25;2623714;36;20026;31
2021/08/16 05:25:37;;;;;;;7.72;2.40;;;;;;;15.89;65.01;101247.91;2623343;36;20904;31
2021/08/16 05:28:05;;;;;;;10.27;2.65;;;;;;;15.96;65.33;101257.31;2623737;36;20038;31
2021/08/16 05:30:35;;;;;;;8.27;3.07;;;;;;;15.76;65.04;101224.66;2607898;54;20029;31
2021/08/16 05:33:03;;;;;;;5.80;2.00;;;;;;;15.72;65.44;101224.84;2622983;36;20030;31
2021/08/16 05:35:33;;;;;;;9.70;2.70;;;;;;;15.77;65.48;101239.56;2607952;47;20026;31
2021/08/16 05:38:03;;;;;;;6.40;2.03;;;;;;;15.93;65.18;101260.06;2624691;36;20050;31
2021/08/16 05:40:34;;;;;;;5.43;2.05;;;;;;;15.72;65.39;101238.84;2629585;36;20082;31
2021/08/16 05:43:04;;;;;;;9.95;2.55;;;;;;;15.89;65.24;101263.72;2622608;36;20988;31
2021/08/16 05:45:33;;;;;;;7.40;2.45;;;;;;;15.69;65.41;101235.47;2625057;36;20030;31
2021/08/16 05:48:01;;;;;;;5.47;2.00;;;;;;;15.86;65.39;101279.63;2604255;47;20027;31
2021/08/16 05:50:31;;;;;;;5.20;1.60;;;;;;;15.72;65.04;101256.44;2604062;47;20950;31
2021/08/16 05:53:01;;;;;;;7.43;2.17;;;;;;;15.91;65.03;101277.69;2629111;36;20070;31
2021/08/16 05:55:31;;;;;;;11.10;3.00;;;;;;;15.73;65.31;101259.00;2625282;36;20019;31
2021/08/16 05:58:01;;;;;;;5.63;2.10;;;;;;;15.87;65.48;101276.09;2623455;36;20116;31
2021/08/16 06:00:31;;;;;;;8.27;2.17;;;;;;;15.88;65.36;101272.53;2622374;36;20928;31
2021/08/16 06:02:59;;;;;;;6.38;2.15;;;;;;;15.87;65.58;101281.38;2623151;36;20030;31
2021/08/16 06:05:28;;;;;;;5.90;2.60;;;;;;;15.90;65.54;101291.78;2606069;54;20026;31
2021/08/16 06:07:58;;;;;;;8.32;2.58;;;;;;;15.91;65.53;101293.47;2624524;36;20941;31
2021/08/16 06:10:28;;;;;;;5.90;2.30;;;;;;;15.76;65.42;101274.69;2624075;36;20026;31
2021/08/16 06:12:58;;;;;;;7.90;2.53;;;;;;;15.78;65.45;101272.88;2604546;47;20026;31
2021/08/16 06:15:28;;;;;;;7.55;2.15;;;;;;;15.97;65.83;101311.72;2603557;47;20031;31
2021/08/16 06:17:59;;;;;;;7.55;2.25;;;;;;;15.92;66.42;101300.50;2626564;36;20085;31
2021/08/16 06:20:27;;;;;;;5.50;2.10;;;;;;;15.78;67.04;101278.13;2603633;54;20057;31
2021/08/16 06:22:57;;;;;;;5.45;1.85;;;;;;;15.89;66.45;101300.59;2622348;36;20023;31
2021/08/16 06:25:27;;;;;;;5.57;2.20;;;;;;;15.83;66.27;101292.00;2628014;36;20905;31
2021/08/16 06:27:57;;;;;;;6.28;2.15;;;;;;;15.80;66.04;101289.47;2622789;36;20779;31
2021/08/16 06:30:27;;;;;;;7.82;3.05;;;;;;;15.99;66.19;101312.53;2622840;36;20082;31
2021/08/16 06:32:57;;;;;;;5.38;1.70;;;;;;;15.86;66.01;101290.16;2623078;36;20031;31
2021/08/16 06:35:26;;;;;;;4.97;1.88;;;;;;;15.73;66.29;101274.78;2623755;36;20027;31
2021/08/16 06:37:59;;;;;;;8.73;1.60;;;;;;;15.92;66.33;101305.78;2604109;46;20027;31
2021/08/16 06:40:29;;;;;;;6.80;1.70;;;;;;;15.90;66.40;101307.56;2622217;36;20022;31
2021/08/16 06:43:00;;;;;;;6.93;1.80;;;;;;;15.77;65.97;101292.22;2604505;54;20114;31
2021/08/16 06:45:30;;;;;;;9.02;2.67;;;;;;;15.96;66.23;101328.44;2610893;47;20127;31
2021/08/16 06:47:58;;;;;;;7.38;1.80;;;;;;;15.94;66.64;101332.91;2623749;36;20034;31
2021/08/16 06:50:27;;;;;;;;;;;;;;;16.08;64.68;101336.78;2611862;54;20070;31
2021/08/16 06:52:57;;;;;;;5.22;1.63;;;;;;;15.90;66.06;101307.56;2605813;47;19938;31
2021/08/16 06:55:25;;;;;;;6.03;1.90;;;;;;;15.87;66.21;101294.53;2605152;54;20074;31
2021/08/16 06:57:55;;;;;;;8.43;2.20;;;;;;;15.95;66.06;101311.75;2627723;36;20054;31
2021/08/16 07:00:25;;;;;;;7.55;1.85;;;;;;;16.08;65.79;101335.91;2604807;46;20989;31
2021/08/16 07:02:58;;;;;;;6.30;1.67;;;;;;;16.16;66.15;101341.75;2629934;36;20038;31
2021/08/16 07:05:29;;;;;;;6.90;1.75;;;;;;;16.06;65.75;101324.56;2624574;36;20042;31
2021/08/16 07:07:59;;;;;;;3.40;1.15;;;;;;;16.05;65.82;101317.56;2608506;46;20029;31
2021/08/16 07:10:30;;;;;;;3.90;1.20;;;;;;;16.25;65.64;101336.16;2605153;54;20046;31
2021/08/16 07:13:01;;;;;;;3.70;1.15;;;;;;;16.30;65.63;101338.63;2623587;36;20023;31
2021/08/16 07:15:31;;;;;;;3.60;1.30;;;;;;;16.23;65.17;101332.72;2625829;36;21464;31
2021/08/16 07:18:03;;;;;;;4.35;1.10;;;;;;;16.26;65.32;101335.25;2624849;36;20771;31
2021/08/16 07:20:35;;;;;;;2.40;1.00;;;;;;;16.27;65.01;101351.91;2624486;36;20021;31
2021/08/16 07:23:05;;;;;;;5.93;1.00;;;;;;;16.34;64.96;101351.66;2605128;47;20084;31
2021/08/16 07:25:35;;;;;;;3.97;1.17;;;;;;;16.37;65.47;101349.81;2626842;36;21740;31
2021/08/16 07:28:03;;;;;;;3.47;1.00;;;;;;;16.30;65.70;101339.50;2623437;36;21122;31
2021/08/16 07:30:34;;;;;;;2.90;1.00;;;;;;;16.59;65.73;101382.41;2606724;54;20023;31
2021/08/16 07:33:04;;;;;;;3.75;1.65;;;;;;;16.57;65.71;101378.94;2623484;36;20882;31
2021/08/16 07:35:34;;;;;;;3.78;1.13;;;;;;;16.58;66.50;101372.78;2623350;36;20884;31
2021/08/16 07:38:04;;;;;;;3.67;1.33;;;;;;;16.69;66.05;101396.09;2628212;36;20054;31
2021/08/16 07:40:34;;;;;;;1.77;0.70;;;;;;;16.74;66.48;101402.09;2627253;36;20065;31
2021/08/16 07:43:02;;;;;;;2.42;0.93;;;;;;;16.70;66.29;101390.75;2627134;36;19938;31
2021/08/16 07:45:32;;;;;;;2.20;0.80;;;;;;;16.62;66.34;101369.06;2605113;54;20776;31
2021/08/16 07:48:03;;;;;;;2.58;0.80;;;;;;;16.70;65.46;101369.66;2623449;36;20030;31
2021/08/16 07:50:33;;;;;;;3.15;0.85;;;;;;;16.88;65.75;101386.63;2624774;36;20022;31
2021/08/16 07:53:00;;;;;;;2.50;0.80;;;;;;;16.76;65.65;101379.16;2606998;54;20851;31
2021/08/16 07:55:30;;;;;;;3.50;0.90;;;;;;;16.91;65.71;101393.53;2605637;54;20583;31
2021/08/16 07:57:58;;;;;;;1.85;1.00;;;;;;;17.01;66.22;101405.47;2624383;36;20279;31
2021/08/16 08:00:28;;;;;;;3.25;1.00;;;;;;;17.05;65.39;101393.88;2605345;47;19938;31
2021/08/16 08:02:56;;;;;;;3.30;1.00;;;;;;;17.13;65.79;101404.97;2631871;36;20057;31
2021/08/16 08:05:27;;;;;;;3.07;0.77;;;;;;;17.21;65.30;101407.34;2627917;36;20034;31
2021/08/16 08:07:57;;;;;;;2.10;0.85;;;;;;;17.24;65.25;101405.44;2634624;36;19941;31
2021/08/16 08:10:25;;;;;;;2.00;0.93;;;;;;;17.11;65.34;101373.38;2624002;36;20053;31
2021/08/16 08:12:58;;;;;;;2.20;0.60;;;;;;;17.34;64.96;101408.59;2624627;36;20896;31
2021/08/16 08:15:28;;;;;;;1.35;0.70;;;;;;;17.32;64.33;101390.16;2625546;36;20030;31
2021/08/16 08:17:58;;;;;;;1.93;0.70;;;;;;;17.37;64.42;101400.53;2625166;36;20026;31
2021/08/16 08:20:29;;;;;;;3.20;1.10;;;;;;;17.50;63.88;101406.19;2605746;54;20880;31
2021/08/16 08:22:59;;;;;;;3.00;0.90;;;;;;;17.41;64.02;101388.06;2626440;36;20078;31
2021/08/16 08:25:29;;;;;;;5.25;1.20;;;;;;;17.58;63.87;101412.00;2640916;36;20018;31
2021/08/16 08:28:01;;;;;;;3.83;1.15;;;;;;;17.55;63.68;101394.53;2607224;47;20030;31
2021/08/16 08:30:31;;;;;;;3.30;1.10;;;;;;;17.63;63.17;101399.47;2624122;36;20037;31
2021/08/16 08:32:59;;;;;;;3.00;0.90;;;;;;;17.65;63.24;101397.66;2629324;36;20026;31
2021/08/16 08:35:27;;;;;;;3.03;1.00;;;;;;;17.87;62.40;101417.00;2610597;47;20342;31
2021/08/16 08:40:27;;;;;;;2.40;0.77;;;;;;;18.03;63.12;101421.63;2629259;36;20066;31
2021/08/16 08:42:57;;;;;;;2.25;0.90;;;;;;;18.09;62.32;101429.31;2625508;36;21009;31
2021/08/16 08:45:28;;;;;;;2.10;0.90;;;;;;;18.10;62.46;101423.13;2612371;47;20074;31
2021/08/16 08:47:56;;;;;;;3.17;0.93;;;;;;;18.10;61.39;101431.03;2607513;46;20110;31
2021/08/16 08:50:26;;;;;;;2.60;0.70;;;;;;;18.09;61.03;101413.44;2607686;54;20070;31
2021/08/16 08:53:02;;;;;;;3.42;1.02;;;;;;;18.29;60.94;101437.25;2629932;36;20026;31
2021/08/16 08:55:32;;;;;;;3.67;0.73;;;;;;;18.26;61.26;101421.53;2644478;36;20090;31
2021/08/16 08:58:18;;;;;;;1.88;0.90;;;;;;;18.35;60.54;101436.16;2649460;36;20026;-79
2021/08/16 09:00:48;;;;;;;2.20;0.70;;;;;;;18.49;60.33;101438.16;2636742;36;20093;31
2021/08/16 09:03:17;;;;;;;2.38;0.90;;;;;;;18.37;60.55;101407.84;2607093;46;20102;31
2021/08/16 09:05:55;;;;;;;3.33;1.15;;;;;;;18.71;59.81;101444.28;2677181;36;20014;-78
2021/08/16 09:08:35;;;;;;;1.63;0.70;;;;;;;18.89;60.59;101443.41;2694553;36;20843;-78
2021/08/16 09:11:21;;;;;;;3.03;0.82;;;;;;;19.05;59.83;101448.00;2649229;36;20452;-77
2021/08/16 09:16:35;;;;;;;6.07;1.08;;;;;;;19.15;57.99;101450.16;2635019;54;20388;-78
2021/08/16 09:19:24;;;;;;;3.40;1.33;;;;;;;19.26;58.85;101449.69;2653734;36;20021;-79
2021/08/16 09:22:07;;;;;;;2.45;0.90;;;;;;;19.26;57.26;101457.63;2598543;54;2004338;-78
2021/08/16 09:24:35;;;;;;;2.55;0.95;;;;;;;19.27;57.21;101458.47;2630821;36;22251;31
2021/08/16 09:27:10;;;;;;;3.35;0.82;;;;;;;19.26;58.33;101449.69;2614417;36;19956;-78
2021/08/16 09:29:49;;;;;;;4.13;1.15;;;;;;;19.31;58.73;101457.38;2653194;36;20046;-78
2021/08/16 09:32:17;;;;;;;1.90;0.80;;;;;;;19.31;56.98;101468.88;2653466;36;20054;-78
2021/08/16 09:34:47;;;;;;;6.40;1.08;;;;;;;19.37;57.08;101460.63;2653568;36;20010;-78
2021/08/16 09:37:26;;;;;;;2.97;0.90;;;;;;;19.50;58.44;101460.88;2653252;36;20014;-78
2021/08/16 09:39:55;;;;;;;2.67;1.10;;;;;;;19.63;55.59;101467.34;2647574;36;20034;-79
2021/08/16 09:42:27;;;;;;;3.42;1.02;;;;;;;19.76;56.10;101472.03;2634767;46;20049;-78
2021/08/16 09:44:57;;;;;;;3.13;0.90;;;;;;;19.74;56.20;101458.88;2653353;36;20011;-77
2021/08/16 09:47:38;;;;;;;2.47;0.85;;;;;;;19.91;56.97;101474.81;2700157;36;20006;-78
2021/08/16 09:50:10;;;;;;;3.88;1.27;;;;;;;19.87;55.17;101473.25;2629181;36;20034;31
2021/08/16 09:52:41;;;;;;;2.15;1.00;;;;;;;19.92;55.16;101478.31;2628210;54;20030;-75
2021/08/16 09:55:11;;;;;;;2.33;0.80;;;;;;;19.72;54.51;101446.63;2641393;36;20091;31
2021/08/16 09:57:42;;;;;;;2.88;0.95;;;;;;;19.92;54.37;101484.50;2635312;54;20049;-77
2021/08/16 10:00:09;;;;;;;2.97;1.00;;;;;;;19.88;54.51;101488.22;2634979;46;20034;-78
2021/08/16 10:02:38;;;;;;;;;;;;;;;20.02;56.91;101491.97;2630745;36;20026;31
2021/08/16 10:05:12;;;;;;;1.67;0.65;;;;;;;19.99;56.30;101502.75;2681586;36;20464;-77
2021/08/16 10:07:42;;;;;;;2.42;0.90;;;;;;;19.89;55.10;101484.63;2634606;54;20030;-77
2021/08/16 10:10:09;;;;;;;3.05;0.68;;;;;;;19.92;54.36;101484.50;2634601;54;20839;-78
2021/08/16 10:12:40;;;;;;;1.25;0.60;;;;;;;20.01;55.54;101496.41;2652711;36;20035;-77
2021/08/16 10:15:11;;;;;;;3.03;0.68;;;;;;;20.10;56.17;101497.75;2702517;36;20007;-77
2021/08/16 10:17:43;;;;;;;1.52;0.70;;;;;;;20.20;55.22;101483.09;2651851;36;20011;-77
2021/08/16 10:20:13;;;;;;;1.77;0.70;;;;;;;20.44;55.46;101489.81;2669931;36;20010;-78
2021/08/16 10:22:41;;;;;;;1.85;0.88;;;;;;;20.70;54.02;101487.66;2697542;36;20018;-77
2021/08/16 10:25:16;;;;;;;2.08;0.80;;;;;;;20.98;53.91;101498.53;2634006;36;20543;-77
2021/08/16 10:27:45;;;;;;;2.33;0.70;;;;;;;21.24;54.56;101493.59;2678642;36;20030;-78
2021/08/16 10:30:17;;;;;;;1.95;0.98;;;;;;;21.52;53.15;101486.78;2627768;36;20042;-77
2021/08/16 10:32:47;;;;;;;1.90;0.63;;;;;;;21.75;50.45;101499.66;2652703;36;20531;-78
2021/08/16 10:35:18;;;;;;;1.05;0.57;;;;;;;22.00;51.12;101499.94;2646565;36;20600;-78
2021/08/16 10:37:47;;;;;;;2.50;0.70;;;;;;;22.24;49.65;101507.47;2645600;36;20664;-78
2021/08/16 10:40:25;;;;;;;2.95;1.08;;;;;;;22.41;51.00;101509.16;2646369;36;20098;-77
2021/08/16 10:43:07;;;;;;;3.67;0.85;;;;;;;22.45;51.60;101511.50;2659516;36;20068;-78
2021/08/16 10:45:43;;;;;;;1.77;0.73;;;;;;;22.44;51.02;101508.94;2647494;36;20031;-77
2021/08/16 10:48:26;;;;;;;1.88;0.70;;;;;;;22.40;51.29;101515.41;2657228;36;20030;-78
2021/08/16 10:51:09;;;;;;;3.85;0.80;;;;;;;22.58;51.72;101526.78;2646912;36;20054;-77
2021/08/16 10:53:52;;;;;;;3.78;0.60;;;;;;;22.69;52.80;101519.84;2648861;36;20562;-78
2021/08/16 10:56:23;;;;;;;2.08;0.47;;;;;;;22.83;50.58;101508.34;2652731;36;20067;-78
2021/08/16 10:58:52;;;;;;;0.93;0.52;;;;;;;23.01;50.35;101525.03;2660396;36;20041;-79
2021/08/16 11:01:27;;;;;;;0.80;0.50;;;;;;;23.28;50.22;101534.00;2637352;36;20031;-78
2021/08/16 11:03:56;;;;;;;1.60;0.63;;;;;;;23.38;47.86;101523.59;2646610;36;20062;-78
2021/08/16 11:06:24;;;;;;;0.90;0.57;;;;;;;23.44;49.22;101525.03;2668035;36;20620;-78
2021/08/16 11:08:59;;;;;;;0.43;0.40;;;;;;;23.66;50.12;101528.03;2635778;36;20034;-79
2021/08/16 11:11:29;;;;;;;0.98;0.50;;;;;;;23.68;49.17;101531.50;2707014;36;20457;-78
2021/08/16 11:14:11;;;;;;;1.73;0.60;;;;;;;23.73;49.28;101523.19;2661475;36;20030;-77
2021/08/16 11:16:49;;;;;;;2.25;0.88;;;;;;;23.62;48.50;101530.97;2699948;36;20035;-77
2021/08/16 11:19:18;;;;;;;0.43;0.35;;;;;;;23.34;46.39;101529.22;2653334;36;20723;-77
2021/08/16 11:21:53;;;;;;;1.48;0.60;;;;;;;23.32;48.75;101547.97;2677763;36;20582;-78
2021/08/16 11:24:37;;;;;;;1.65;0.80;;;;;;;23.20;49.41;101538.06;2693079;36;20014;-78
2021/08/16 11:27:07;;;;;;;3.00;0.80;;;;;;;23.08;47.83;101546.84;2660231;36;20030;-78
2021/08/16 11:29:36;;;;;;;1.70;0.65;;;;;;;23.03;48.86;101539.97;2664916;36;20022;-77
2021/08/16 11:32:05;;;;;;;1.75;0.52;;;;;;;22.97;49.70;101519.06;2643467;36;20668;-77
2021/08/16 11:34:47;;;;;;;2.53;0.70;;;;;;;23.16;50.89;101523.22;2671238;36;20457;-78
2021/08/16 11:37:15;;;;;;;1.38;0.50;;;;;;;23.28;49.46;101522.47;2649354;36;20042;-77
2021/08/16 11:39:50;;;;;;;1.15;0.43;;;;;;;23.56;50.46;101526.88;2645048;36;20030;-79
2021/08/16 11:42:39;;;;;;;1.83;0.65;;;;;;;23.72;47.48;101505.44;2590784;36;2004348;-79
2021/08/16 11:45:11;;;;;;;1.80;0.80;;;;;;;23.83;47.09;101502.97;2632048;36;20062;-79
2021/08/16 11:47:43;;;;;;;2.58;0.70;;;;;;;23.87;46.60;101509.78;2646746;36;20027;-78
2021/08/16 11:50:14;;;;;;;0.82;0.45;;;;;;;23.81;46.36;101518.19;2636462;36;2004876;-79
2021/08/16 11:52:42;;;;;;;1.60;0.60;;;;;;;23.58;47.08;101508.16;2647706;36;20034;-78
2021/08/16 11:55:11;;;;;;;2.47;0.70;;;;;;;23.51;46.28;101513.84;2637429;36;20047;-78
2021/08/16 11:57:52;;;;;;;0.75;0.50;;;;;;;23.41;48.12;101520.72;2631853;36;20446;-78